Time;durP1;ratioP1;P1;durP2;ratioP2;P2;SDS_P1;SDS_P2;PMS_P1;PMS_P2;Temp;Humidity;BMP_temperature;BMP_pressure;BME280_temperature;BME280_humidity;BME280_pressure;Samples;Min_cycle;Max_cycle;Signal;HPM_P1;HPM_P2
2022/01/13 00:01:26;;;;;;;20.23;10.80;;;3.60;99.90;3.40;102648.00;;;;4994897;27;99292;-68
2022/01/13 00:03:52;;;;;;;18.50;10.27;;;3.70;99.90;3.40;102639.00;;;;4994985;27;88085;-69
2022/01/13 00:06:18;;;;;;;20.17;11.00;;;4.20;99.90;3.50;102635.00;;;;4994597;28;110732;-69
2022/01/13 00:08:43;;;;;;;22.03;10.83;;;3.60;99.90;3.40;102630.00;;;;4993751;27;118971;-69
2022/01/13 00:11:09;;;;;;;21.30;11.07;;;3.70;99.90;3.40;102627.00;;;;4994160;27;113001;-71
2022/01/13 00:13:47;;;;;;;19.67;10.50;;;3.70;99.90;3.50;102620.00;;;;4991838;27;107725;-70
2022/01/13 00:18:51;;;;;;;16.17;10.23;;;3.60;99.90;3.40;102621.00;;;;4994888;28;88000;-69
2022/01/13 00:23:52;;;;;;;16.27;9.93;;;3.70;99.90;3.50;102621.00;;;;4994891;27;88040;-69
2022/01/13 00:26:24;;;;;;;20.83;9.53;;;3.80;99.90;3.50;102624.00;;;;4996644;27;89133;-69
2022/01/13 00:28:52;;;;;;;17.80;10.43;;;3.70;99.90;3.50;102622.00;;;;5014896;27;88583;-69
2022/01/13 00:31:27;;;;;;;13.77;9.23;;;3.70;99.90;3.50;102624.00;;;;5015509;27;87640;-69
2022/01/13 00:33:55;;;;;;;16.70;9.17;;;3.70;99.90;3.50;102621.00;;;;5015388;27;87988;-68
2022/01/13 00:36:31;;;;;;;15.90;9.47;;;3.70;99.90;3.50;102617.00;;;;5015391;27;89083;-69
2022/01/13 00:38:57;;;;;;;18.97;10.27;;;3.40;99.90;3.50;102613.00;;;;5014243;27;103564;-69
2022/01/13 00:41:27;;;;;;;17.60;9.60;;;3.70;99.90;3.50;102606.00;;;;4998965;27;87815;-69
2022/01/13 00:43:55;;;;;;;15.00;10.33;;;3.70;99.90;3.50;102610.00;;;;4995517;28;87297;-69
2022/01/13 00:46:23;;;;;;;14.20;8.73;;;3.80;99.90;3.50;102602.00;;;;4975906;28;89054;-68
2022/01/13 00:48:51;;;;;;;16.63;10.00;;;3.80;99.90;3.50;102611.00;;;;4959867;28;89649;-68
2022/01/13 00:51:18;;;;;;;17.90;9.00;;;3.70;99.90;3.50;102600.00;;;;4994739;27;89234;-69
2022/01/13 00:53:43;;;;;;;12.23;8.77;;;3.70;99.90;3.50;102604.00;;;;4995580;27;88003;-68
2022/01/13 00:56:10;;;;;;;13.27;9.00;;;3.70;99.90;3.50;102599.00;;;;4994579;27;88841;-69
2022/01/13 00:58:37;;;;;;;14.13;8.30;;;3.60;99.90;3.50;102602.00;;;;4994427;27;88339;-69
2022/01/13 01:01:06;;;;;;;16.63;8.77;;;3.70;99.90;3.50;102599.00;;;;4976998;28;87828;-69
2022/01/13 01:03:33;;;;;;;14.67;7.73;;;3.70;99.90;3.50;102608.00;;;;4994220;28;95391;-69
2022/01/13 01:06:01;;;;;;;13.67;8.10;;;3.80;99.90;3.50;102597.00;;;;4997344;27;101630;-69
2022/01/13 01:08:27;;;;;;;16.70;7.67;;;3.80;99.90;3.50;102608.00;;;;5015092;27;88596;-70
2022/01/13 01:10:56;;;;;;;10.50;7.63;;;3.70;99.90;3.50;102601.00;;;;4998225;27;108790;-69
2022/01/13 01:13:27;;;;;;;13.97;8.73;;;3.70;99.90;3.60;102589.00;;;;4995316;28;87865;-69
2022/01/13 01:15:56;;;;;;;15.40;8.00;;;3.80;99.90;3.60;102596.00;;;;4994222;27;89216;-69
2022/01/13 01:23:55;;;;;;;8.97;6.00;;;3.80;99.90;3.60;102596.00;;;;4993988;27;87831;-70
2022/01/13 01:26:35;;;;;;;10.73;6.50;;;3.90;99.90;3.60;102578.00;;;;4994936;27;88229;-70
2022/01/13 01:29:20;;;;;;;9.87;5.70;;;3.90;99.90;3.60;102585.00;;;;4994280;28;87715;-69
2022/01/13 01:31:51;;;;;;;10.87;6.57;;;3.40;99.90;3.50;102588.00;;;;4998169;27;87750;-69
2022/01/13 01:37:13;;;;;;;14.47;6.43;;;3.70;99.90;3.50;102592.00;;;;4990152;28;87843;-68
2022/01/13 01:39:40;;;;;;;12.07;6.27;;;3.80;99.90;3.50;102581.00;;;;4976544;28;88542;-69
2022/01/13 01:42:06;;;;;;;12.47;6.70;;;3.80;99.90;3.50;102563.00;;;;4993911;28;88906;-68
2022/01/13 01:44:37;;;;;;;10.40;6.80;;;3.70;99.90;3.50;102562.00;;;;5000303;27;88298;-69
2022/01/13 01:47:04;;;;;;;9.23;5.83;;;3.70;99.90;3.40;102558.00;;;;5008799;27;88922;-69
2022/01/13 01:49:37;;;;;;;11.50;6.20;;;3.70;99.90;3.40;102561.00;;;;4990890;27;87852;-69
2022/01/13 01:52:04;;;;;;;13.57;6.67;;;3.70;99.90;3.40;102553.00;;;;4980342;28;88013;-68
2022/01/13 01:54:30;;;;;;;9.90;5.60;;;3.60;99.90;3.30;102555.00;;;;4999958;27;87870;-68
2022/01/13 01:56:57;;;;;;;12.40;7.27;;;3.50;99.90;3.30;102562.00;;;;5016766;27;117599;-71
2022/01/13 01:59:27;;;;;;;9.47;6.07;;;3.50;99.90;3.30;102561.00;;;;5017160;27;87490;-67
2022/01/13 02:01:53;;;;;;;10.47;6.20;;;3.50;99.90;3.20;102558.00;;;;5019089;27;88013;-68
2022/01/13 02:04:22;;;;;;;13.87;7.37;;;3.40;99.90;3.20;102561.00;;;;5005376;27;87585;-69
2022/01/13 02:06:48;;;;;;;12.67;6.43;;;3.40;99.90;3.10;102565.00;;;;4996844;28;89518;-69
2022/01/13 02:09:17;;;;;;;10.73;7.53;;;3.40;99.90;3.10;102556.00;;;;4985922;27;88087;-68
2022/01/13 02:11:47;;;;;;;11.57;6.70;;;3.30;99.90;3.00;102562.00;;;;5017818;27;87624;-71
2022/01/13 02:17:12;;;;;;;12.00;7.67;;;3.20;99.90;2.90;102558.00;;;;4994093;28;87695;-68
2022/01/13 02:19:44;;;;;;;11.90;7.07;;;3.10;99.90;2.80;102554.00;;;;4982056;27;88215;-70
2022/01/13 02:22:10;;;;;;;10.73;6.93;;;3.10;99.90;2.80;102547.00;;;;4999542;27;87795;-69
2022/01/13 02:24:36;;;;;;;11.87;7.27;;;3.10;99.90;2.80;102543.00;;;;4998574;27;101054;-70
2022/01/13 02:27:04;;;;;;;9.77;6.77;;;3.10;99.90;2.80;102545.00;;;;4982780;28;87771;-70
2022/01/13 02:29:30;;;;;;;19.77;7.30;;;3.00;99.90;2.80;102540.00;;;;4998152;27;104644;-70
2022/01/13 02:31:57;;;;;;;12.53;7.77;;;3.00;99.90;2.80;102544.00;;;;5017485;27;88798;-70
2022/01/13 02:34:23;;;;;;;13.10;8.47;;;3.00;99.90;2.80;102544.00;;;;5016861;27;87510;-70
2022/01/13 02:36:55;;;;;;;11.87;7.33;;;3.00;99.90;2.80;102549.00;;;;5017182;27;88555;-71
2022/01/13 02:39:23;;;;;;;12.03;7.97;;;3.00;99.90;2.80;102543.00;;;;4997913;27;87703;-69
2022/01/13 02:41:49;;;;;;;16.30;7.43;;;3.10;99.90;2.80;102545.00;;;;5017368;27;87840;-70
2022/01/13 02:44:18;;;;;;;14.63;7.70;;;3.10;99.90;2.80;102534.00;;;;5002693;27;96582;-71
2022/01/13 02:49:20;;;;;;;11.63;7.70;;;3.10;99.90;2.70;102540.00;;;;4996810;28;87944;-71
2022/01/13 02:51:50;;;;;;;13.50;8.73;;;3.00;99.90;2.70;102540.00;;;;4979463;28;87956;-69
2022/01/13 02:54:16;;;;;;;11.63;8.07;;;3.00;99.90;2.70;102556.00;;;;4996125;27;94780;-70
2022/01/13 02:56:43;;;;;;;12.10;7.90;;;3.00;99.90;2.70;102551.00;;;;4994778;27;118445;-69
2022/01/13 02:59:09;;;;;;;10.67;7.70;;;2.90;99.90;2.70;102561.00;;;;4996306;27;88857;-68
2022/01/13 03:01:35;;;;;;;13.80;7.60;;;3.00;99.90;2.70;102559.00;;;;5014232;27;98268;-69
2022/01/13 03:04:06;;;;;;;14.10;8.40;;;3.00;99.90;2.70;102564.00;;;;5016172;27;87815;-68
2022/01/13 03:06:36;;;;;;;14.17;8.40;;;2.90;99.90;2.70;102567.00;;;;5016160;27;89106;-69
2022/01/13 03:09:05;;;;;;;15.97;8.67;;;2.90;99.90;2.70;102558.00;;;;5015981;27;88113;-70
2022/01/13 03:11:35;;;;;;;20.33;8.87;;;3.00;99.90;2.70;102549.00;;;;4983807;28;87750;-69
2022/01/13 03:14:02;;;;;;;14.53;7.40;;;3.00;99.90;2.70;102543.00;;;;4997013;28;87144;-68
2022/01/13 03:16:29;;;;;;;12.70;7.57;;;2.90;99.90;2.70;102535.00;;;;4995977;28;88213;-71
2022/01/13 03:18:55;;;;;;;13.30;7.63;;;2.90;99.90;2.70;102532.00;;;;4997986;27;88810;-69
2022/01/13 03:21:21;;;;;;;8.77;7.23;;;3.00;99.90;2.70;102522.00;;;;5016557;27;88589;-70
2022/01/13 03:23:46;;;;;;;19.27;8.63;;;2.90;99.90;2.70;102528.00;;;;5003692;27;87766;-68
2022/01/13 03:26:12;;;;;;;12.43;7.67;;;2.90;99.90;2.60;102520.00;;;;4995591;27;117722;-68
2022/01/13 03:28:50;;;;;;;16.23;8.60;;;2.90;99.90;2.60;102501.00;;;;4996210;27;87977;-69
2022/01/13 03:31:18;;;;;;;14.43;9.10;;;2.80;99.90;2.60;102505.00;;;;4996107;27;87840;-68
2022/01/13 03:33:44;;;;;;;14.70;7.43;;;2.90;99.90;2.60;102521.00;;;;4996182;27;88031;-68
2022/01/13 03:36:09;;;;;;;12.50;7.30;;;2.90;99.90;2.60;102523.00;;;;4994142;27;118737;-69
2022/01/13 03:38:36;;;;;;;12.93;7.87;;;2.80;99.90;2.60;102527.00;;;;4994636;27;118587;-69
2022/01/13 03:41:02;;;;;;;17.43;8.30;;;2.90;99.90;2.60;102529.00;;;;4996171;27;99146;-69
2022/01/13 03:43:29;;;;;;;11.97;7.27;;;2.90;99.90;2.60;102529.00;;;;4995308;28;97898;-69
2022/01/13 03:45:54;;;;;;;18.27;7.37;;;2.80;99.90;2.60;102511.00;;;;4994987;27;89214;-69
2022/01/13 03:48:21;;;;;;;17.23;9.23;;;2.10;99.90;2.60;102520.00;;;;4995211;28;89519;-69
2022/01/13 03:50:47;;;;;;;12.80;7.97;;;2.80;99.90;2.60;102521.00;;;;4995961;27;87746;-69
2022/01/13 03:53:27;;;;;;;12.57;7.53;;;2.80;99.90;2.50;102509.00;;;;5005817;27;107779;-69
2022/01/13 03:56:50;;;;;;;15.23;8.03;;;2.80;99.90;2.50;102504.00;;;;5015813;27;88026;-69
2022/01/13 04:00:10;;;;;;;15.07;8.87;;;2.80;99.90;2.40;102502.00;;;;5015322;27;87707;-69
2022/01/13 04:02:36;;;;;;;13.73;8.10;;;2.70;99.90;2.40;102499.00;;;;5016108;27;87713;-69
2022/01/13 04:05:02;;;;;;;16.50;8.20;;;2.70;99.90;2.40;102497.00;;;;5014367;27;108774;-69
2022/01/13 04:07:28;;;;;;;16.70;7.90;;;2.70;99.90;2.40;102489.00;;;;5007549;27;97783;-70
2022/01/13 04:09:53;;;;;;;11.90;7.30;;;2.70;99.90;2.50;102490.00;;;;4998055;27;116311;-70
2022/01/13 04:12:21;;;;;;;10.43;7.23;;;2.70;99.90;2.50;102494.00;;;;5015368;27;88613;-69
2022/01/13 04:14:54;;;;;;;11.43;6.70;;;2.70;99.90;2.50;102495.00;;;;5015148;27;87998;-68
2022/01/13 04:17:22;;;;;;;16.20;8.53;;;2.90;99.90;2.50;102477.00;;;;4999883;27;87869;-69
2022/01/13 04:19:48;;;;;;;11.73;7.97;;;2.80;99.90;2.50;102493.00;;;;4994624;27;88335;-68
2022/01/13 04:22:17;;;;;;;11.27;7.17;;;2.70;99.90;2.50;102486.00;;;;4995328;28;87705;-69
2022/01/13 04:24:50;;;;;;;15.77;7.87;;;3.10;99.90;2.60;102478.00;;;;4994948;27;94171;-68
2022/01/13 04:27:24;;;;;;;14.07;7.37;;;2.80;99.90;2.60;102488.00;;;;4994782;27;88374;-68
2022/01/13 04:30:11;;;;;;;12.33;6.97;;;2.80;99.90;2.60;102492.00;;;;4995195;27;87125;-69
2022/01/13 04:32:36;;;;;;;14.17;7.90;;;2.80;99.90;2.60;102486.00;;;;4979418;27;87772;-69
2022/01/13 04:35:02;;;;;;;15.77;8.27;;;2.90;99.90;2.60;102483.00;;;;4995833;27;91002;-69
2022/01/13 04:37:28;;;;;;;14.23;8.77;;;2.80;99.90;2.60;102469.00;;;;4994713;27;100685;-69
2022/01/13 04:39:54;;;;;;;14.20;8.40;;;3.60;99.90;2.70;102477.00;;;;5012173;27;116625;-70
2022/01/13 04:42:19;;;;;;;13.13;6.37;;;2.90;99.90;2.70;102467.00;;;;4995285;27;110217;-70
2022/01/13 04:44:45;;;;;;;13.80;7.63;;;2.90;99.90;2.70;102471.00;;;;5014431;27;87694;-69
2022/01/13 04:47:10;;;;;;;16.07;8.43;;;2.80;99.90;2.70;102473.00;;;;5013225;27;117315;-69
2022/01/13 04:49:36;;;;;;;15.53;7.97;;;3.00;99.90;2.70;102477.00;;;;5013163;27;116907;-70
2022/01/13 04:52:02;;;;;;;14.90;7.90;;;2.90;99.90;2.70;102485.00;;;;5013423;27;109925;-69
2022/01/13 04:54:28;;;;;;;9.10;6.17;;;2.90;99.90;2.70;102490.00;;;;5011362;27;87388;-69
2022/01/13 04:57:06;;;;;;;13.53;7.37;;;3.00;99.90;2.70;102499.00;;;;4977990;28;116480;-69
2022/01/13 04:59:32;;;;;;;10.20;7.37;;;3.00;99.90;2.70;102506.00;;;;4994712;27;88867;-69
2022/01/13 05:02:00;;;;;;;11.20;7.00;;;2.90;99.90;2.70;102503.00;;;;4992599;27;105790;-69
2022/01/13 05:04:26;;;;;;;16.10;7.40;;;2.90;99.90;2.70;102505.00;;;;5006285;27;87643;-69
2022/01/13 05:06:52;;;;;;;13.57;7.50;;;3.00;99.90;2.80;102505.00;;;;5014524;27;111574;-69
2022/01/13 05:09:18;;;;;;;13.93;7.43;;;3.00;99.90;2.80;102504.00;;;;5013861;27;93195;-70
2022/01/13 05:11:43;;;;;;;13.50;6.70;;;3.00;99.90;2.80;102513.00;;;;4993672;28;110372;-68
2022/01/13 05:14:09;;;;;;;10.13;6.60;;;3.00;99.90;2.80;102504.00;;;;5003501;27;108955;-69
2022/01/13 05:16:54;;;;;;;12.97;7.23;;;3.10;99.90;2.80;102517.00;;;;4994524;27;116444;-68
2022/01/13 05:19:45;;;;;;;11.17;7.43;;;3.10;99.90;2.90;102500.00;;;;4994461;27;87134;-68
2022/01/13 05:24:37;;;;;;;11.83;7.67;;;3.10;99.90;2.90;102498.00;;;;4993370;27;87826;-68
2022/01/13 05:27:03;;;;;;;12.77;7.63;;;3.20;99.90;2.90;102495.00;;;;5005844;27;89079;-69
2022/01/13 05:29:29;;;;;;;15.37;7.57;;;3.10;99.90;2.90;102490.00;;;;4998293;27;90289;-68
2022/01/13 05:31:54;;;;;;;13.43;6.77;;;3.20;99.90;2.90;102489.00;;;;5009708;27;89549;-69
2022/01/13 05:34:20;;;;;;;12.47;6.53;;;3.20;99.90;3.00;102484.00;;;;4996086;27;108725;-68
2022/01/13 05:36:46;;;;;;;11.70;6.63;;;3.20;99.90;3.00;102488.00;;;;4997762;27;118233;-69
2022/01/13 05:39:12;;;;;;;11.60;6.20;;;3.20;99.90;3.00;102485.00;;;;4995776;28;88473;-69
2022/01/13 05:41:38;;;;;;;15.33;6.77;;;3.20;99.90;3.00;102484.00;;;;5003242;27;87943;-68
2022/01/13 05:44:04;;;;;;;9.77;6.83;;;3.20;99.90;3.00;102473.00;;;;5014202;27;89443;-69
2022/01/13 05:46:30;;;;;;;10.93;6.23;;;3.20;99.90;3.00;102481.00;;;;5013690;27;88586;-69
2022/01/13 05:48:56;;;;;;;9.60;5.73;;;3.20;99.90;3.00;102483.00;;;;5012822;27;117521;-70
2022/01/13 05:51:23;;;;;;;12.80;5.93;;;3.20;99.90;3.00;102469.00;;;;5008418;27;88417;-69
2022/01/13 05:53:49;;;;;;;9.63;5.90;;;3.20;99.90;3.00;102470.00;;;;5014433;27;87989;-69
2022/01/13 05:56:15;;;;;;;10.93;5.33;;;3.20;99.90;3.10;102466.00;;;;5008689;27;96440;-70
2022/01/13 05:58:41;;;;;;;11.67;6.10;;;3.20;99.90;3.10;102468.00;;;;4991680;28;88139;-69
2022/01/13 06:01:07;;;;;;;11.67;5.40;;;3.20;99.90;3.10;102458.00;;;;5013487;27;88093;-69
2022/01/13 06:03:33;;;;;;;9.07;5.97;;;3.30;99.90;3.10;102461.00;;;;5016163;27;104735;-70
2022/01/13 06:05:59;;;;;;;9.40;5.27;;;3.30;99.90;3.10;102468.00;;;;5016457;27;117786;-70
2022/01/13 06:08:25;;;;;;;10.07;5.27;;;3.30;99.90;3.10;102477.00;;;;5016038;27;115855;-69
2022/01/13 06:10:51;;;;;;;9.47;4.83;;;3.30;99.90;3.10;102474.00;;;;5014483;27;110806;-70
2022/01/13 06:13:16;;;;;;;10.97;6.03;;;3.30;99.90;3.10;102473.00;;;;5017952;27;87613;-69
2022/01/13 06:15:43;;;;;;;15.37;6.07;;;3.30;99.90;3.10;102474.00;;;;5016338;27;88943;-69
2022/01/13 06:18:16;;;;;;;11.17;6.20;;;3.30;99.90;3.10;102476.00;;;;5015780;27;118782;-69
2022/01/13 06:20:43;;;;;;;8.67;4.93;;;3.30;99.90;3.10;102474.00;;;;5016614;27;87619;-69
2022/01/13 06:23:11;;;;;;;10.20;5.67;;;3.30;99.90;3.10;102473.00;;;;5016749;27;87396;-69
2022/01/13 06:25:38;;;;;;;11.17;5.80;;;3.30;99.90;3.10;102479.00;;;;5016091;27;88214;-69
2022/01/13 06:28:06;;;;;;;12.20;6.20;;;3.30;99.90;3.10;102494.00;;;;5015784;27;116693;-69
2022/01/13 06:30:32;;;;;;;9.70;6.17;;;3.30;99.90;3.10;102485.00;;;;5011176;27;87655;-68
2022/01/13 06:32:58;;;;;;;6.43;5.33;;;3.30;99.90;3.10;102489.00;;;;5014904;27;89467;-70
2022/01/13 06:35:24;;;;;;;11.90;5.77;;;3.30;99.90;3.10;102487.00;;;;4999228;27;118080;-68
2022/01/13 06:37:50;;;;;;;9.60;5.80;;;3.30;99.90;3.10;102488.00;;;;5016799;27;87906;-68
2022/01/13 06:40:16;;;;;;;10.07;5.27;;;3.30;99.90;3.10;102491.00;;;;5013306;27;110055;-68
2022/01/13 06:42:42;;;;;;;8.43;5.50;;;3.40;99.90;3.10;102492.00;;;;5015923;27;109145;-69
2022/01/13 06:45:10;;;;;;;10.57;4.93;;;3.30;99.90;3.10;102498.00;;;;5015083;27;88119;-69
2022/01/13 06:47:38;;;;;;;9.00;5.07;;;3.30;99.90;3.10;102500.00;;;;4997528;27;88018;-69
2022/01/13 06:50:05;;;;;;;8.23;5.17;;;3.30;99.90;3.10;102505.00;;;;5015331;27;87594;-68
2022/01/13 06:52:30;;;;;;;8.50;4.23;;;3.30;99.90;3.10;102503.00;;;;5016146;27;87984;-68
2022/01/13 06:54:56;;;;;;;6.17;4.30;;;3.20;99.90;3.10;102495.00;;;;5009626;27;95256;-68
2022/01/13 06:57:22;;;;;;;8.67;5.23;;;3.30;99.90;3.10;102493.00;;;;4994176;27;117179;-69
2022/01/13 06:59:47;;;;;;;6.50;4.50;;;3.30;99.90;3.10;102499.00;;;;4995046;28;110142;-68
2022/01/13 07:02:14;;;;;;;7.67;4.97;;;3.90;99.90;3.10;102498.00;;;;5006682;27;87781;-68
2022/01/13 07:04:39;;;;;;;9.33;4.07;;;3.30;99.90;3.10;102497.00;;;;4993075;28;90499;-69
2022/01/13 07:07:05;;;;;;;8.30;5.10;;;3.40;99.90;3.10;102500.00;;;;4995119;28;118755;-69
2022/01/13 07:09:31;;;;;;;7.07;4.30;;;3.30;99.90;3.10;102510.00;;;;4994920;27;110959;-69
2022/01/13 07:11:57;;;;;;;6.53;3.93;;;3.30;99.90;3.10;102514.00;;;;4996580;28;87745;-69
2022/01/13 07:14:23;;;;;;;6.90;4.40;;;3.40;99.90;3.10;102517.00;;;;4994652;27;105695;-68
2022/01/13 07:16:49;;;;;;;7.17;4.23;;;3.40;99.90;3.10;102517.00;;;;5014376;27;88677;-70
2022/01/13 07:19:15;;;;;;;7.43;4.60;;;3.40;99.90;3.10;102519.00;;;;4993183;28;88149;-70
2022/01/13 07:21:43;;;;;;;7.70;4.47;;;3.30;99.90;3.20;102520.00;;;;4982264;28;86701;-70
2022/01/13 07:24:10;;;;;;;5.67;4.20;;;3.30;99.90;3.20;102521.00;;;;4997706;27;88033;-69
2022/01/13 07:26:36;;;;;;;6.40;4.20;;;3.40;99.90;3.20;102534.00;;;;4995282;27;88422;-69
2022/01/13 07:29:04;;;;;;;11.40;5.00;;;3.50;99.90;3.20;102541.00;;;;4994517;27;96276;-69
2022/01/13 07:31:29;;;;;;;10.03;4.33;;;3.40;99.90;3.20;102541.00;;;;5016310;27;88056;-69
2022/01/13 07:33:55;;;;;;;7.50;4.73;;;3.40;99.90;3.20;102544.00;;;;5015332;27;88742;-69
2022/01/13 07:36:21;;;;;;;5.57;4.27;;;3.50;99.90;3.20;102549.00;;;;5013877;27;89183;-68
2022/01/13 07:38:47;;;;;;;7.40;4.00;;;3.40;99.90;3.30;102557.00;;;;4996772;27;87922;-70
2022/01/13 07:41:12;;;;;;;8.37;4.63;;;4.00;99.90;3.30;102552.00;;;;5018182;27;108459;-70
2022/01/13 07:43:42;;;;;;;7.67;4.57;;;3.50;99.90;3.30;102575.00;;;;5014780;27;105361;-71
2022/01/13 07:46:08;;;;;;;4.27;3.27;;;3.50;99.90;3.30;102580.00;;;;5014046;27;88236;-70
2022/01/13 07:48:33;;;;;;;8.27;4.50;;;4.00;99.90;3.30;102582.00;;;;5014862;27;87861;-70
2022/01/13 07:50:59;;;;;;;7.70;5.03;;;3.60;99.90;3.40;102570.00;;;;5014623;27;108530;-69
2022/01/13 07:53:25;;;;;;;5.70;4.20;;;3.30;99.90;3.40;102553.00;;;;5013567;27;118727;-69
2022/01/13 07:55:50;;;;;;;6.53;4.53;;;3.50;99.90;3.40;102553.00;;;;5012858;27;118914;-71
2022/01/13 07:58:16;;;;;;;12.83;5.53;;;3.50;99.90;3.40;102551.00;;;;5014304;27;109611;-69
2022/01/13 08:00:42;;;;;;;9.87;4.93;;;3.60;99.90;3.40;102538.00;;;;4984269;28;107614;-69
2022/01/13 08:03:08;;;;;;;6.33;5.00;;;3.40;99.90;3.40;102536.00;;;;4997000;27;89236;-69
2022/01/13 08:05:33;;;;;;;5.13;3.87;;;3.70;99.90;3.40;102536.00;;;;5014839;27;104953;-70
2022/01/13 08:07:59;;;;;;;7.17;4.23;;;3.60;99.90;3.40;102549.00;;;;5014974;27;92581;-69
2022/01/13 08:10:25;;;;;;;9.07;4.47;;;3.70;99.90;3.50;102542.00;;;;5015211;27;108840;-69
2022/01/13 08:12:50;;;;;;;6.23;4.57;;;3.70;99.90;3.50;102541.00;;;;5005658;27;118490;-70
2022/01/13 08:15:16;;;;;;;6.50;3.90;;;3.80;99.90;3.50;102526.00;;;;4993653;28;109476;-69
2022/01/13 08:20:31;;;;;;;8.23;4.90;;;3.60;99.90;3.50;102530.00;;;;4977051;27;87975;-69
2022/01/13 08:22:58;;;;;;;7.63;4.13;;;3.70;99.90;3.60;102537.00;;;;5015793;27;88761;-71
2022/01/13 08:25:26;;;;;;;5.73;4.17;;;3.70;99.90;3.60;102522.00;;;;5005742;27;92441;-70
2022/01/13 08:27:53;;;;;;;7.83;5.03;;;3.80;99.90;3.60;102524.00;;;;4979841;27;90360;-69
2022/01/13 08:30:19;;;;;;;7.57;4.33;;;3.80;99.90;3.60;102541.00;;;;5014565;27;87525;-70
2022/01/13 08:32:45;;;;;;;8.70;4.37;;;3.90;99.90;3.70;102519.00;;;;5015018;27;88229;-69
2022/01/13 08:35:11;;;;;;;9.53;5.37;;;3.90;99.90;3.70;102536.00;;;;5007962;27;116653;-69
2022/01/13 08:37:37;;;;;;;7.27;5.40;;;3.90;99.90;3.70;102528.00;;;;4994822;28;87683;-70
2022/01/13 08:40:07;;;;;;;8.07;4.83;;;4.00;99.90;3.80;102528.00;;;;4994007;27;107512;-69
2022/01/13 08:42:34;;;;;;;7.47;4.20;;;3.90;99.90;3.80;102519.00;;;;4975460;28;101965;-69
2022/01/13 08:45:01;;;;;;;8.10;5.13;;;3.90;99.90;3.90;102511.00;;;;4994315;27;89554;-69
2022/01/13 08:47:27;;;;;;;6.77;4.60;;;4.00;99.90;3.90;102512.00;;;;4985771;28;87844;-69
2022/01/13 08:49:53;;;;;;;13.87;4.50;;;4.10;99.90;3.90;102518.00;;;;5003641;27;108264;-69
2022/01/13 08:52:18;;;;;;;8.37;4.53;;;4.10;99.90;4.00;102509.00;;;;4994852;27;90847;-70
2022/01/13 08:54:46;;;;;;;11.40;5.57;;;4.10;99.90;4.00;102509.00;;;;4976693;27;116743;-69
2022/01/13 08:57:13;;;;;;;7.10;3.70;;;4.10;99.90;4.00;102514.00;;;;5014253;27;87920;-68
2022/01/13 08:59:39;;;;;;;9.63;4.70;;;4.20;99.90;4.10;102523.00;;;;4994653;27;91130;-68
2022/01/13 09:02:05;;;;;;;11.23;4.57;;;4.30;99.90;4.20;102516.00;;;;5013940;27;88137;-69
2022/01/13 09:04:30;;;;;;;5.27;4.13;;;4.30;99.90;4.20;102511.00;;;;4993304;27;117663;-68
2022/01/13 09:06:56;;;;;;;7.20;4.87;;;4.30;99.90;4.20;102516.00;;;;4995001;27;110391;-68
2022/01/13 09:09:22;;;;;;;11.27;4.70;;;4.40;99.90;4.20;102508.00;;;;5013960;27;87565;-69
2022/01/13 09:11:48;;;;;;;5.63;4.20;;;4.40;99.90;4.30;102513.00;;;;4984205;28;88024;-69
2022/01/13 09:14:16;;;;;;;9.13;5.20;;;4.40;99.90;4.30;102509.00;;;;4993233;28;115984;-69
2022/01/13 09:16:44;;;;;;;8.10;3.50;;;4.40;99.90;4.30;102519.00;;;;4994314;28;87713;-69
2022/01/13 09:19:12;;;;;;;9.67;4.80;;;4.50;99.90;4.40;102514.00;;;;4994701;27;88064;-67
2022/01/13 09:21:44;;;;;;;5.40;4.03;;;4.50;99.90;4.40;102518.00;;;;4994100;28;87724;-69
2022/01/13 09:24:21;;;;;;;5.93;3.90;;;4.50;99.90;4.40;102530.00;;;;4994901;27;87751;-69
2022/01/13 09:26:47;;;;;;;5.43;4.27;;;4.60;99.90;4.50;102533.00;;;;4976866;27;87803;-69
2022/01/13 09:29:15;;;;;;;11.83;4.03;;;4.70;99.90;4.50;102529.00;;;;4994269;28;88230;-68
2022/01/13 09:31:42;;;;;;;7.00;4.23;;;4.70;99.90;4.50;102521.00;;;;4993063;27;89683;-69
2022/01/13 09:34:09;;;;;;;9.17;4.60;;;4.70;99.90;4.60;102508.00;;;;4993410;28;88803;-69
2022/01/13 09:36:36;;;;;;;10.37;4.13;;;4.70;99.90;4.60;102520.00;;;;5012511;27;87867;-69
2022/01/13 09:39:04;;;;;;;10.50;4.67;;;4.80;99.90;4.60;102524.00;;;;5014268;27;88277;-68
2022/01/13 09:41:32;;;;;;;8.40;3.93;;;4.90;99.90;4.70;102528.00;;;;4977150;28;88372;-68
2022/01/13 09:44:02;;;;;;;8.77;4.63;;;4.80;99.90;4.70;102524.00;;;;4975447;28;89879;-69
2022/01/13 09:46:28;;;;;;;16.03;4.90;;;4.80;99.90;4.70;102515.00;;;;4989170;28;88220;-70
2022/01/13 09:48:55;;;;;;;5.57;3.90;;;4.80;99.90;4.80;102530.00;;;;4994066;28;87356;-69
2022/01/13 09:51:25;;;;;;;5.87;3.83;;;5.00;99.90;4.80;102514.00;;;;4993363;28;87868;-68
2022/01/13 09:53:51;;;;;;;8.50;4.27;;;5.00;99.90;4.90;102510.00;;;;4974903;28;88252;-69
2022/01/13 09:56:17;;;;;;;9.53;5.07;;;5.00;99.90;4.90;102525.00;;;;4988749;28;89507;-69
2022/01/13 09:58:44;;;;;;;13.57;4.60;;;5.10;99.90;5.00;102525.00;;;;4992910;27;109721;-69
2022/01/13 10:01:14;;;;;;;8.00;4.37;;;5.20;99.90;5.00;102530.00;;;;4993524;27;88877;-69
2022/01/13 10:03:40;;;;;;;6.63;3.73;;;5.20;99.90;5.10;102530.00;;;;4993452;27;88213;-68
2022/01/13 10:06:25;;;;;;;11.73;4.47;;;5.20;99.90;5.10;102538.00;;;;4974252;27;93514;-70
2022/01/13 10:08:58;;;;;;;5.33;3.13;;;5.30;99.90;5.20;102535.00;;;;4958046;28;87926;-69
2022/01/13 10:11:44;;;;;;;5.20;3.50;;;5.30;99.90;5.20;102539.00;;;;5012836;27;87598;-70
2022/01/13 10:17:07;;;;;;;6.77;4.63;;;5.40;99.90;5.30;102534.00;;;;4995511;27;87875;-70
2022/01/13 10:19:43;;;;;;;5.40;3.80;;;5.50;99.90;5.40;102533.00;;;;4984360;28;87928;-70
2022/01/13 10:22:13;;;;;;;9.93;4.20;;;5.50;99.90;5.50;102534.00;;;;4978182;28;92508;-69
2022/01/13 10:24:45;;;;;;;8.27;3.27;;;5.60;99.90;5.50;102524.00;;;;5002881;27;89019;-70
2022/01/13 10:27:14;;;;;;;9.90;3.97;;;5.60;99.90;5.60;102529.00;;;;4990496;28;87792;-69
2022/01/13 10:29:54;;;;;;;8.63;3.97;;;5.70;99.90;5.60;102527.00;;;;4996202;27;92116;-69
2022/01/13 10:32:34;;;;;;;10.53;4.03;;;5.70;99.90;5.60;102530.00;;;;4977880;28;87860;-71
2022/01/13 10:35:10;;;;;;;7.33;4.07;;;5.80;99.90;5.70;102525.00;;;;4998681;27;88404;-69
2022/01/13 10:38:02;;;;;;;6.23;3.73;;;5.80;99.90;5.70;102526.00;;;;5017175;27;87856;-70
2022/01/13 10:40:34;;;;;;;6.37;3.60;;;5.80;99.90;5.70;102516.00;;;;4997638;27;87133;-70
2022/01/13 10:46:01;;;;;;;7.23;3.60;;;5.90;99.90;5.80;102504.00;;;;5004517;27;88069;-70
2022/01/13 10:48:30;;;;;;;4.97;3.27;;;5.90;99.90;5.70;102488.00;;;;4952988;28;110137;-69
2022/01/13 10:51:07;;;;;;;4.23;3.07;;;5.90;99.90;5.70;102508.00;;;;4990470;28;87632;-70
2022/01/13 10:53:38;;;;;;;6.23;3.57;;;5.90;99.90;5.70;102494.00;;;;4976898;28;87784;-70
2022/01/13 10:56:10;;;;;;;7.53;3.77;;;6.00;99.90;5.70;102504.00;;;;4991473;28;87990;-69
2022/01/13 10:58:39;;;;;;;6.70;3.47;;;5.80;99.90;5.70;102485.00;;;;4991827;28;87762;-70
2022/01/13 11:01:07;;;;;;;5.73;3.07;;;5.80;99.90;5.60;102486.00;;;;4995979;28;87843;-69
2022/01/13 11:03:39;;;;;;;7.00;3.33;;;5.80;99.90;5.60;102483.00;;;;4993923;28;87921;-70
2022/01/13 11:06:09;;;;;;;6.97;3.07;;;5.80;99.90;5.60;102482.00;;;;5004260;27;88187;-70
2022/01/13 11:08:44;;;;;;;9.77;4.03;;;5.80;99.90;5.60;102479.00;;;;5014424;27;87762;-69
2022/01/13 11:11:26;;;;;;;10.50;3.80;;;5.70;99.90;5.60;102478.00;;;;4998289;27;88104;-69
2022/01/13 11:14:14;;;;;;;11.33;4.20;;;5.70;99.90;5.60;102487.00;;;;5015155;27;88792;-67
2022/01/13 11:16:40;;;;;;;5.73;3.53;;;5.70;99.90;5.60;102471.00;;;;5015784;27;88964;-69
2022/01/13 11:19:07;;;;;;;8.73;4.83;;;5.80;99.90;5.60;102473.00;;;;4996268;27;101677;-70
2022/01/13 11:21:33;;;;;;;6.87;3.60;;;5.80;99.90;5.60;102468.00;;;;4997610;27;87728;-69
2022/01/13 11:24:00;;;;;;;8.63;3.53;;;5.80;99.90;5.70;102475.00;;;;4993850;27;118215;-69
2022/01/13 11:26:27;;;;;;;5.30;3.43;;;5.80;99.90;5.70;102479.00;;;;4998282;27;95724;-68
2022/01/13 11:29:00;;;;;;;6.37;3.00;;;5.90;99.90;5.70;102467.00;;;;5015465;27;87990;-69
2022/01/13 11:31:26;;;;;;;11.10;3.57;;;5.90;99.90;5.80;102468.00;;;;5004973;27;87027;-69